createdAt,value
2019-03-25T00:03:52.063Z,5.44
2019-03-25T00:09:56.638Z,5.35
2019-03-25T00:16:01.410Z,5.20
2019-03-25T00:22:06.029Z,5.50
2019-03-25T00:28:10.600Z,5.29
2019-03-25T00:34:15.142Z,5.13
2019-03-25T00:40:19.768Z,5.10
2019-03-25T00:46:24.324Z,5.12
2019-03-25T00:52:28.894Z,4.99
2019-03-25T00:58:33.430Z,4.94
2019-03-25T01:04:38.133Z,4.74
2019-03-25T01:10:42.747Z,4.71
2019-03-25T01:16:47.316Z,4.69
2019-03-25T01:22:51.880Z,4.60
2019-03-25T01:28:56.456Z,4.16
2019-03-25T01:35:01.068Z,4.22
2019-03-25T01:41:05.712Z,4.14
2019-03-25T01:47:10.280Z,3.98
2019-03-25T01:53:14.829Z,4.01
2019-03-25T01:59:19.376Z,4.06
2019-03-25T02:05:23.992Z,4.05
2019-03-25T02:11:28.532Z,4.27
2019-03-25T02:17:33.152Z,4.55
2019-03-25T02:23:37.795Z,4.66
2019-03-25T02:29:42.330Z,4.75
2019-03-25T02:35:47.094Z,4.83
2019-03-25T02:41:51.728Z,4.88
2019-03-25T02:47:56.274Z,4.75
2019-03-25T02:54:00.836Z,4.95
2019-03-25T03:00:07.317Z,4.92
2019-03-25T03:06:11.900Z,4.77
2019-03-25T03:12:16.443Z,4.97
2019-03-25T03:18:21.004Z,4.98
2019-03-25T03:24:25.551Z,5.13
2019-03-25T03:30:30.114Z,5.20
2019-03-25T03:36:34.673Z,5.24
2019-03-25T03:42:39.230Z,5.14
2019-03-25T03:48:43.850Z,5.19
2019-03-25T03:54:48.677Z,4.93
2019-03-25T04:00:53.309Z,4.72
2019-03-25T04:06:57.869Z,4.50
2019-03-25T04:13:02.422Z,4.49
2019-03-25T04:19:06.984Z,4.50
2019-03-25T04:25:11.711Z,4.52
2019-03-25T04:31:16.249Z,4.44
2019-03-25T04:37:20.870Z,4.43
2019-03-25T04:43:25.447Z,4.55
2019-03-25T04:49:29.981Z,4.52
2019-03-25T04:55:34.711Z,4.63
2019-03-25T05:01:39.276Z,4.64
2019-03-25T05:07:43.820Z,4.56
2019-03-25T05:13:50.019Z,4.56
2019-03-25T05:19:54.572Z,4.52
2019-03-25T05:26:00.680Z,4.47
2019-03-25T05:32:05.364Z,4.58
2019-03-25T05:38:09.913Z,4.73
2019-03-25T05:44:14.459Z,4.83
2019-03-25T05:50:19.158Z,4.81
2019-03-25T05:56:23.698Z,4.74
2019-03-25T06:02:28.245Z,4.73
2019-03-25T06:08:32.795Z,4.74
2019-03-25T06:14:37.421Z,4.80
2019-03-25T06:20:41.972Z,4.79
2019-03-25T06:26:46.542Z,4.81
2019-03-25T06:32:51.101Z,4.61
2019-03-25T06:38:55.645Z,4.70
2019-03-25T06:45:00.418Z,4.67
2019-03-25T06:51:05.167Z,4.68
2019-03-25T06:57:09.727Z,4.73
2019-03-25T07:03:14.340Z,4.75
2019-03-25T07:09:18.907Z,4.81
2019-03-25T07:15:28.025Z,5.38
2019-03-25T07:21:32.586Z,5.02
2019-03-25T07:27:37.464Z,5.16
2019-03-25T07:33:42.162Z,5.31
2019-03-25T07:39:46.703Z,5.38
2019-03-25T07:45:51.321Z,5.40
2019-03-25T07:51:55.867Z,5.38
2019-03-25T07:58:00.410Z,5.78
2019-03-25T08:04:05.129Z,5.93
2019-03-25T08:10:11.478Z,6.16
2019-03-25T08:16:16.098Z,6.11
2019-03-25T08:22:20.719Z,6.41
2019-03-25T08:28:25.271Z,6.63
2019-03-25T08:34:29.814Z,6.33
2019-03-25T08:40:34.440Z,6.22
2019-03-25T08:46:39.049Z,6.02
2019-03-25T08:52:43.625Z,6.16
2019-03-25T08:58:48.221Z,6.01
2019-03-25T09:04:53.139Z,5.99
2019-03-25T09:10:57.712Z,6.04
2019-03-25T09:17:02.285Z,6.26
2019-03-25T09:23:06.965Z,6.14
2019-03-25T09:29:11.578Z,6.24
2019-03-25T09:35:16.339Z,6.41
2019-03-25T09:41:22.478Z,6.35
2019-03-25T09:47:27.223Z,6.41
2019-03-25T09:53:32.028Z,6.13
2019-03-25T09:59:36.578Z,6.76
2019-03-25T10:05:41.124Z,6.73
2019-03-25T10:11:45.763Z,6.94
2019-03-25T10:17:50.386Z,6.90
2019-03-25T10:23:55.280Z,6.77
2019-03-25T10:29:59.950Z,7.44
2019-03-25T10:36:04.553Z,7.68
2019-03-25T10:42:09.104Z,7.28
2019-03-25T10:48:13.725Z,6.93
2019-03-25T10:54:18.332Z,7.01
2019-03-25T11:00:23.165Z,6.93
2019-03-25T11:06:27.786Z,7.19
2019-03-25T11:12:32.621Z,7.21
2019-03-25T11:18:37.175Z,7.26
2019-03-25T11:24:41.814Z,7.07
2019-03-25T11:30:53.534Z,5.60
2019-03-25T11:36:58.098Z,5.44
2019-03-25T11:43:02.650Z,5.81
2019-03-25T11:49:07.367Z,5.67
2019-03-25T11:55:12.192Z,5.63
2019-03-25T12:01:16.819Z,6.43
2019-03-25T12:07:21.391Z,8.29
2019-03-25T12:13:26.023Z,9.03
2019-03-25T12:19:30.592Z,8.18
2019-03-25T12:25:35.160Z,7.99
2019-03-25T12:31:39.787Z,9.95
2019-03-25T12:37:44.345Z,9.52
2019-03-25T12:43:48.885Z,8.99
2019-03-25T12:49:53.430Z,7.37
2019-03-25T12:55:57.987Z,7.15
2019-03-25T13:02:02.561Z,8.54
2019-03-25T13:08:07.273Z,11.54
2019-03-25T13:14:11.941Z,12.10
2019-03-25T13:20:16.509Z,11.62
2019-03-25T13:26:21.050Z,9.94
2019-03-25T13:32:25.584Z,8.67
2019-03-25T13:38:30.165Z,11.81
2019-03-25T13:44:34.795Z,15.27
2019-03-25T13:50:39.451Z,14.50
2019-03-25T13:56:44.082Z,11.81
2019-03-25T14:02:48.642Z,10.15
2019-03-25T14:08:55.809Z,8.78
2019-03-25T14:15:00.553Z,7.63
2019-03-25T14:21:05.232Z,7.55
2019-03-25T14:27:09.798Z,12.02
2019-03-25T14:33:14.415Z,14.90
2019-03-25T14:39:18.979Z,12.10
2019-03-25T14:45:26.631Z,10.58
2019-03-25T14:51:29.833Z,9.62
2019-03-25T14:57:34.392Z,8.75
2019-03-25T15:03:39.006Z,8.82
2019-03-25T15:09:43.580Z,8.21
2019-03-25T15:15:48.197Z,7.60
2019-03-25T15:21:52.750Z,7.59
2019-03-25T15:27:57.450Z,7.65
2019-03-25T15:34:02.012Z,7.55
2019-03-25T15:40:12.697Z,7.01
2019-03-25T15:46:17.301Z,5.91
2019-03-25T15:52:21.931Z,5.56
2019-03-25T15:58:26.562Z,5.56
2019-03-25T16:04:31.267Z,5.72
2019-03-25T16:10:35.817Z,6.18
2019-03-25T16:16:40.380Z,6.22
2019-03-25T16:22:46.468Z,6.20
2019-03-25T16:28:51.272Z,6.15
2019-03-25T16:34:55.849Z,5.96
2019-03-25T16:41:00.457Z,5.64
2019-03-25T16:47:05.104Z,5.32
2019-03-25T16:53:09.649Z,5.20
2019-03-25T16:59:14.199Z,5.18
2019-03-25T17:05:18.898Z,5.20
2019-03-25T17:11:23.462Z,5.31
2019-03-25T17:17:28.075Z,5.49
2019-03-25T17:23:32.666Z,5.56
2019-03-25T17:29:37.258Z,5.53
2019-03-25T17:35:41.892Z,5.35
2019-03-25T17:41:46.472Z,5.61
2019-03-25T17:47:51.107Z,5.33
2019-03-25T17:53:55.744Z,5.30
2019-03-25T18:00:00.411Z,5.06
2019-03-25T18:06:05.057Z,4.99
2019-03-25T18:12:09.618Z,4.78
2019-03-25T18:18:14.197Z,4.66
2019-03-25T18:24:18.866Z,4.65
2019-03-25T18:30:33.101Z,4.54
2019-03-25T18:36:37.641Z,4.47
2019-03-25T18:42:42.231Z,4.39
2019-03-25T18:48:46.885Z,4.29
2019-03-25T18:54:51.445Z,4.25
2019-03-25T19:00:56.145Z,4.17
2019-03-25T19:07:01.365Z,4.23
2019-03-25T19:13:06.145Z,4.21
2019-03-25T19:19:10.782Z,4.30
2019-03-25T19:25:15.473Z,4.54
2019-03-25T19:31:20.103Z,4.75
2019-03-25T19:37:24.631Z,4.90
2019-03-25T19:43:29.173Z,5.15
2019-03-25T19:49:33.757Z,5.22
2019-03-25T19:55:38.422Z,5.26
2019-03-25T20:01:43.037Z,5.47
2019-03-25T20:07:47.765Z,5.63
2019-03-25T20:13:52.369Z,5.70
2019-03-25T20:19:57.130Z,5.81
2019-03-25T20:26:01.685Z,5.97
2019-03-25T20:32:06.367Z,5.91
2019-03-25T20:38:11.001Z,5.96
2019-03-25T20:44:15.718Z,5.88
2019-03-25T20:50:20.429Z,5.72
2019-03-25T20:56:25.095Z,5.56
2019-03-25T21:02:29.730Z,5.63
2019-03-25T21:08:34.422Z,5.58
2019-03-25T21:14:39.083Z,5.50
2019-03-25T21:20:43.791Z,5.28
2019-03-25T21:26:49.992Z,5.22
2019-03-25T21:32:58.658Z,5.15
2019-03-25T21:39:00.909Z,4.80
2019-03-25T21:45:08.423Z,4.76
2019-03-25T21:51:13.075Z,4.93
2019-03-25T21:57:17.733Z,4.75
2019-03-25T22:03:22.327Z,4.66
2019-03-25T22:09:26.874Z,4.80
2019-03-25T22:15:31.455Z,4.68
2019-03-25T22:21:36.026Z,4.71
2019-03-25T22:27:40.723Z,4.63
2019-03-25T22:33:45.284Z,4.57
2019-03-25T22:39:49.851Z,4.87
2019-03-25T22:45:54.494Z,4.51
2019-03-25T22:51:59.056Z,4.53
2019-03-25T22:58:03.623Z,4.43
2019-03-25T23:04:08.255Z,4.55
2019-03-25T23:10:12.946Z,4.73
2019-03-25T23:16:17.950Z,4.96
2019-03-25T23:22:22.507Z,5.12
2019-03-25T23:28:27.050Z,5.13
2019-03-25T23:34:31.612Z,5.20
2019-03-25T23:40:36.502Z,5.39
2019-03-25T23:46:41.130Z,5.50
2019-03-25T23:52:45.766Z,5.58
2019-03-25T23:58:50.434Z,5.71
